Flight Track Log - Related Links

Times and Time Zones

All times are in EDT time to prevent confusion due to time zone crossing. See the KAP927 flight status page for this flight to view local times or setup timezone preferences in your user account.

Time Position Orientation Groundspeed Altitude Reporting Facility
EDT Latitude Longitude Course Direction KTS MPH feet Rate Location/Type
Sat 07:07:13 AM 44.5422 -75.3092 149° Southeast 155 178 4,000  Level Boston Center
Sat 07:08:13 AM 44.5181 -75.2847 144° Southeast 150 173 4,500 600 Climbing Boston Center
Sat 07:09:13 AM 44.4792 -75.2508 148° Southeast 144 166 5,200 650 Climbing Boston Center
Sat 07:10:13 AM 44.4486 -75.2231 147° Southeast 137 158 5,800 600 Climbing Boston Center
Sat 07:11:13 AM 44.4139 -75.1953 150° Southeast 142 163 6,400 550 Climbing Boston Center
Sat 07:12:00 AM 44.4902 -75.2947 149° Southeast  Level Estimated
Sat 07:12:13 AM 44.3831 -75.1708 150° Southeast 136 157 6,900  Level Boston Center
Sat 07:13:13 AM 44.3506 -75.1372 144° Southeast 136 157 7,300 300 Climbing Boston Center
Sat 07:14:13 AM 44.3139 -75.1036 147° Southeast 141 162 7,500 100 Climbing Boston Center
Sat 07:15:13 AM 44.2750 -75.0700 148° Southeast 146 168 7,500 50 Level Boston Center
Sat 07:16:13 AM 44.2339 -75.0450 156° South 157 181 7,600 50 Climbing Boston Center
Sat 07:17:13 AM 44.1950 -75.0114 148° Southeast 157 181 7,600  Level Boston Center
Sat 07:18:13 AM 44.1583 -74.9781 147° Southeast 157 181 7,600  Level Boston Center
Sat 07:19:13 AM 44.1214 -74.9447 147° Southeast 157 181 7,600 -50 Level Boston Center
Sat 07:20:13 AM 44.0847 -74.9114 147° Southeast 157 181 7,500 -50 Descending Boston Center
Sat 07:21:13 AM 44.0458 -74.8808 151° Southeast 157 181 7,500  Level Boston Center
Sat 07:22:13 AM 44.0089 -74.8506 149° Southeast 157 181 7,500 -250 Level Boston Center
Sat 07:23:13 AM 43.9658 -74.8142 149° Southeast 163 188 7,000 -450 Descending Boston Center
Sat 07:24:13 AM 43.9250 -74.7808 150° Southeast 168 193 6,600 -400 Descending Boston Center
Sat 07:25:13 AM 43.8819 -74.7417 147° Southeast 173 199 6,200 -450 Descending Boston Center
Sat 07:26:13 AM 43.8408 -74.7083 150° Southeast 178 205 5,700 -300 Descending Boston Center
Sat 07:27:13 AM 43.8000 -74.6722 147° Southeast 178 205 5,600 -50 Descending Boston Center
Sat 07:28:13 AM 43.7608 -74.6422 151° Southeast 172 198 5,600 -50 Level Boston Center
Sat 07:29:13 AM 43.7239 -74.6119 149° Southeast 167 192 5,500 -50 Descending Boston Center
Sat 07:30:13 AM 43.6872 -74.5792 147° Southeast 160 184 5,500  Level Boston Center
Sat 07:31:13 AM 43.6522 -74.5492 148° Southeast 160 184 5,500 50 Level Boston Center
Sat 07:32:13 AM 43.6153 -74.5192 150° Southeast 160 184 5,600  Climbing Boston Center
Sat 07:33:13 AM 43.5761 -74.4864 149° Southeast 160 184 5,500 -50 Descending Boston Center
Sat 07:34:13 AM 43.5414 -74.4567 148° Southeast 160 184 5,500  Level Boston Center
Sat 07:35:25 AM 43.5044 -74.4267 149° Southeast 160 184 5,500  Level Boston Center
Sat 07:36:25 AM 43.4614 -74.3881 147° Southeast 160 184 5,500  Level Boston Center
Sat 07:37:25 AM 43.4242 -74.3583 150° Southeast 160 184 5,500  Level Boston Center
Sat 07:38:25 AM 43.3872 -74.3286 150° Southeast 160 184 5,500  Level Boston Center
Sat 07:39:25 AM 43.3481 -74.2958 149° Southeast 160 184 5,500  Level Boston Center
Sat 07:40:25 AM 43.3111 -74.2664 150° Southeast 160 184 5,500  Level Boston Center
Sat 07:41:25 AM 43.2742 -74.2367 150° Southeast 160 184 5,500  Level Boston Center
Sat 07:42:25 AM 43.2392 -74.2042 146° Southeast 160 184 5,500  Level Boston Center
Sat 07:43:25 AM 43.2042 -74.1775 151° Southeast 160 184 5,500  Level Boston Center
Sat 07:44:37 AM 43.1608 -74.1394 147° Southeast 160 184 5,500 -136 Level Boston Center
Sat 07:45:37 AM 43.1200 -74.0956 142° Southeast 165 190 5,200 -400 Descending Boston Center
Sat 07:46:37 AM 43.0828 -74.0661 150° Southeast 170 196 4,700 -500 Descending Boston Center
Sat 07:47:37 AM 43.0397 -74.0253 145° Southeast 170 196 4,200 -400 Descending Boston Center
Sat 07:48:37 AM 43.0025 -73.9903 145° Southeast 170 196 3,900 -350 Descending Boston Center
Sat 07:49:37 AM 42.9594 -73.9464 143° Southeast 170 196 3,500 -300 Descending Boston Center
Sat 07:50:37 AM 42.9267 -73.9089 140° Southeast 170 196 3,300 -250 Descending Boston Center
Sat 07:51:37 AM 42.8875 -73.8625 139° Southeast 170 196 3,000 -529 Descending Boston Center
Sat 07:52:53 AM 42.8400 -73.8247 150° Southeast 167 192 2,100 -788 Descending Boston Center
Sat 07:53:54 AM 42.7964 -73.8097 166° South 144 166 1,200 -843 Descending Boston Center
Sat 07:54:54 AM 42.7611 -73.8089 179° South 114 131 400 -800 Descending Boston Center
Sat 07:56:00 AM 42.7491 -73.8020 160° South  Level Estimated
Sat 08:03:00 AM 42.7491 -73.8020 160° South  Level Estimated
Sat 08:04:00 AM 42.7491 -73.8020 160° South  Level Estimated

Login

Don't have an account? Register now (free) for customized features, flight alerts, and more!